createdAt,value
2022-11-10T00:03:28.498Z,12.35
2022-11-10T00:08:58.803Z,12.65
2022-11-10T00:14:48.109Z,9.43
2022-11-10T00:17:36.546Z,10.65
2022-11-10T00:20:21.969Z,11.82
2022-11-10T00:23:07.068Z,11.98
2022-11-10T00:28:38.057Z,9.70
2022-11-10T00:31:23.503Z,13.05
2022-11-10T00:34:15.963Z,12.48
2022-11-10T00:37:01.417Z,12.25
2022-11-10T00:39:46.661Z,12.25
2022-11-10T00:42:32.323Z,11.38
2022-11-10T00:45:17.555Z,11.07
2022-11-10T00:48:03.316Z,11.90
2022-11-10T00:50:48.627Z,12.35
2022-11-10T00:53:33.774Z,11.98
2022-11-10T00:59:04.861Z,10.15
2022-11-10T01:04:35.923Z,11.32
2022-11-10T01:07:21.328Z,11.93
2022-11-10T01:10:07.307Z,11.45
2022-11-10T01:15:42.662Z,9.48
2022-11-10T01:18:28.226Z,9.35
2022-11-10T01:21:13.452Z,8.65
2022-11-10T01:23:58.957Z,9.77
2022-11-10T01:26:44.074Z,9.40
2022-11-10T01:29:29.437Z,9.48
2022-11-10T01:32:15.044Z,8.35
2022-11-10T01:35:00.191Z,7.82
2022-11-10T01:37:45.709Z,7.00
2022-11-10T01:40:31.132Z,6.57
2022-11-10T01:43:16.840Z,5.38
2022-11-10T01:46:07.493Z,5.75
2022-11-10T01:48:59.535Z,6.55
2022-11-10T01:52:05.232Z,7.90
2022-11-10T01:54:51.090Z,6.93
2022-11-10T01:57:38.057Z,6.07
2022-11-10T02:00:23.841Z,5.10
2022-11-10T02:03:41.370Z,5.60
2022-11-10T02:06:31.587Z,6.10
2022-11-10T02:09:17.822Z,6.80
2022-11-10T02:12:03.741Z,7.05
2022-11-10T02:17:34.940Z,7.43
2022-11-10T02:20:21.702Z,8.23
2022-11-10T02:23:36.000Z,8.65
2022-11-10T02:26:25.917Z,7.13
2022-11-10T02:29:11.682Z,7.32
2022-11-10T02:31:56.843Z,7.47
2022-11-10T02:34:42.987Z,8.30
2022-11-10T02:40:13.584Z,6.55
2022-11-10T02:42:58.678Z,6.60
2022-11-10T02:45:44.619Z,7.07
2022-11-10T02:51:15.191Z,7.57
2022-11-10T02:54:00.823Z,8.13
2022-11-10T02:59:31.975Z,9.18
2022-11-10T03:02:17.609Z,11.70
2022-11-10T03:07:56.293Z,9.93
2022-11-10T03:10:42.360Z,8.73
2022-11-10T03:13:40.215Z,8.90
2022-11-10T03:16:32.876Z,7.78
2022-11-10T03:19:18.358Z,9.88
2022-11-10T03:22:03.724Z,5.35
2022-11-10T03:24:49.171Z,9.23
2022-11-10T03:27:34.499Z,9.75
2022-11-10T03:30:19.923Z,11.45
2022-11-10T03:33:06.139Z,10.82
2022-11-10T03:35:51.387Z,12.45
2022-11-10T03:38:36.728Z,10.35
2022-11-10T03:41:22.323Z,10.35
2022-11-10T03:44:07.805Z,11.07
2022-11-10T03:46:52.949Z,12.05
2022-11-10T03:49:38.340Z,9.98
2022-11-10T03:52:23.704Z,8.38
2022-11-10T03:55:11.844Z,8.15
2022-11-10T03:58:02.213Z,8.95
2022-11-10T04:00:47.474Z,7.90
2022-11-10T04:03:33.142Z,10.95
2022-11-10T04:06:37.148Z,10.95
2022-11-10T04:09:22.642Z,13.20
2022-11-10T04:12:27.054Z,10.80
2022-11-10T04:15:32.130Z,11.18
2022-11-10T04:18:26.161Z,9.75
2022-11-10T04:21:12.351Z,10.48
2022-11-10T04:23:57.872Z,10.00
2022-11-10T04:29:29.085Z,10.93
2022-11-10T04:35:00.070Z,11.45
2022-11-10T04:37:47.043Z,14.38
2022-11-10T04:40:32.248Z,12.73
2022-11-10T04:43:17.575Z,14.60
2022-11-10T04:46:03.973Z,14.15
2022-11-10T04:48:50.192Z,12.93
2022-11-10T04:51:38.590Z,13.05
2022-11-10T04:54:23.899Z,12.38
2022-11-10T04:57:09.336Z,12.15
2022-11-10T04:59:54.760Z,10.75
2022-11-10T05:02:40.231Z,10.68
2022-11-10T05:05:25.839Z,11.23
2022-11-10T05:08:11.282Z,8.30
2022-11-10T05:10:57.049Z,8.40
2022-11-10T05:13:43.083Z,10.05
2022-11-10T05:16:28.337Z,9.70
2022-11-10T05:19:13.946Z,7.05
2022-11-10T05:21:59.485Z,5.88
2022-11-10T05:24:44.949Z,5.43
2022-11-10T05:27:30.352Z,5.57
2022-11-10T05:30:16.120Z,4.85
2022-11-10T05:33:02.618Z,6.88
2022-11-10T05:35:50.048Z,3.72
2022-11-10T05:38:41.840Z,4.22
2022-11-10T05:41:29.000Z,5.50
2022-11-10T05:44:14.591Z,3.45
2022-11-10T05:47:00.101Z,1.92
2022-11-10T05:49:45.867Z,2.20
2022-11-10T05:55:18.532Z,2.95
2022-11-10T05:58:04.394Z,3.42
2022-11-10T06:03:34.622Z,3.15
2022-11-10T06:09:06.010Z,2.00
2022-11-10T06:11:51.300Z,2.92
2022-11-10T06:17:22.112Z,2.85
2022-11-10T06:20:07.955Z,3.20
2022-11-10T06:23:05.161Z,2.83
2022-11-10T06:25:50.497Z,2.88
2022-11-10T06:28:35.934Z,2.45
2022-11-10T06:31:21.133Z,3.72
2022-11-10T06:34:06.652Z,3.60
2022-11-10T06:36:51.971Z,2.97
2022-11-10T06:39:37.410Z,3.03
2022-11-10T06:45:08.645Z,2.90
2022-11-10T06:48:05.347Z,3.15
2022-11-10T06:50:50.457Z,2.83
2022-11-10T06:53:35.563Z,2.72
2022-11-10T06:56:20.799Z,2.38
2022-11-10T06:59:06.546Z,2.67
2022-11-10T07:01:51.876Z,3.85
2022-11-10T07:04:36.980Z,2.72
2022-11-10T07:07:22.656Z,2.92
2022-11-10T07:10:08.098Z,3.58
2022-11-10T07:13:02.387Z,3.47
2022-11-10T07:15:47.683Z,4.18
2022-11-10T07:18:33.257Z,3.30
2022-11-10T07:21:18.214Z,3.13
2022-11-10T07:24:03.957Z,3.63
2022-11-10T07:26:49.059Z,4.18
2022-11-10T07:29:34.175Z,3.90
2022-11-10T07:32:19.620Z,3.58
2022-11-10T07:35:05.139Z,3.70
2022-11-10T07:37:50.382Z,4.25
2022-11-10T07:40:36.329Z,4.15
2022-11-10T07:43:24.354Z,3.50
2022-11-10T07:46:10.596Z,3.40
2022-11-10T07:48:56.174Z,3.40
2022-11-10T07:51:42.973Z,1.98
2022-11-10T07:54:28.353Z,3.67
2022-11-10T07:57:13.600Z,3.35
2022-11-10T07:59:59.225Z,3.72
2022-11-10T08:02:44.271Z,8.05
2022-11-10T08:05:29.898Z,10.82
2022-11-10T08:08:15.415Z,8.57
2022-11-10T08:11:00.813Z,7.80
2022-11-10T08:13:46.440Z,5.55
2022-11-10T08:16:32.361Z,6.00
2022-11-10T08:19:17.965Z,5.57
2022-11-10T08:22:03.747Z,5.97
2022-11-10T08:24:49.127Z,4.85
2022-11-10T08:27:34.612Z,4.70
2022-11-10T08:30:20.155Z,2.35
2022-11-10T08:33:07.408Z,3.97
2022-11-10T08:35:53.330Z,4.47
2022-11-10T08:38:38.605Z,3.03
2022-11-10T08:41:24.114Z,6.95
2022-11-10T08:44:11.069Z,4.97
2022-11-10T08:46:56.578Z,5.43
2022-11-10T08:49:42.072Z,5.63
2022-11-10T08:52:27.746Z,3.90
2022-11-10T08:55:13.448Z,3.90
2022-11-10T09:00:45.406Z,6.00
2022-11-10T09:03:30.550Z,3.90
2022-11-10T09:06:15.874Z,1.15
2022-11-10T09:09:01.252Z,2.25
2022-11-10T09:11:46.715Z,1.48
2022-11-10T09:14:32.305Z,2.95
2022-11-10T09:17:17.846Z,1.20
2022-11-10T09:20:04.943Z,2.35
2022-11-10T09:22:50.750Z,1.90
2022-11-10T09:28:23.037Z,2.30
2022-11-10T09:31:08.443Z,2.75
2022-11-10T09:33:53.765Z,1.08
2022-11-10T09:36:40.463Z,2.58
2022-11-10T09:39:26.233Z,1.50
2022-11-10T09:42:33.335Z,1.02
2022-11-10T09:45:25.300Z,1.63
2022-11-10T09:48:42.290Z,1.95
2022-11-10T09:51:46.992Z,2.08
2022-11-10T09:57:25.385Z,2.00
2022-11-10T10:00:16.512Z,1.63
2022-11-10T10:03:04.525Z,1.80
2022-11-10T10:06:10.066Z,1.30
2022-11-10T10:09:08.840Z,1.85
2022-11-10T10:12:08.117Z,1.55
2022-11-10T10:15:02.996Z,1.58
2022-11-10T10:17:51.387Z,1.60
2022-11-10T10:20:45.024Z,1.33
2022-11-10T10:24:07.177Z,1.50
2022-11-10T10:26:55.406Z,1.40
2022-11-10T10:29:45.608Z,1.33
2022-11-10T10:32:31.049Z,1.65
2022-11-10T10:35:17.711Z,1.70
2022-11-10T10:38:04.620Z,1.73
2022-11-10T10:40:52.276Z,1.35
2022-11-10T10:43:39.322Z,1.67
2022-11-10T10:46:34.422Z,1.50
2022-11-10T10:49:29.657Z,1.50
2022-11-10T10:52:24.983Z,1.40
2022-11-10T10:55:13.366Z,1.53
2022-11-10T10:58:05.218Z,1.95
2022-11-10T11:01:01.035Z,1.50
2022-11-10T11:03:50.816Z,1.63
2022-11-10T11:06:36.681Z,1.45
2022-11-10T11:09:31.227Z,1.05
2022-11-10T11:12:22.769Z,1.15
2022-11-10T11:15:19.089Z,1.40
2022-11-10T11:18:13.639Z,1.50
2022-11-10T11:21:37.704Z,1.83
2022-11-10T11:24:55.065Z,1.60
2022-11-10T11:28:06.014Z,1.33
2022-11-10T11:31:10.715Z,1.33
2022-11-10T11:34:29.580Z,1.40
2022-11-10T11:38:12.339Z,1.27
2022-11-10T11:41:45.425Z,1.20
2022-11-10T11:44:39.969Z,1.15
2022-11-10T11:48:04.380Z,1.38
2022-11-10T11:50:58.234Z,1.30
2022-11-10T11:54:17.968Z,1.38
2022-11-10T11:57:41.998Z,1.20
2022-11-10T12:00:35.157Z,1.30
2022-11-10T12:04:03.918Z,1.25
2022-11-10T12:07:10.949Z,1.27
2022-11-10T12:10:12.969Z,1.40
2022-11-10T12:13:16.783Z,1.20
2022-11-10T12:16:18.000Z,0.98
2022-11-10T12:19:24.473Z,1.60
2022-11-10T12:22:25.388Z,1.27
2022-11-10T12:25:26.471Z,1.30
2022-11-10T12:28:17.639Z,1.17
2022-11-10T12:31:06.451Z,1.00
2022-11-10T12:34:04.450Z,2.00
2022-11-10T12:36:51.886Z,1.60
2022-11-10T12:39:48.749Z,1.10
2022-11-10T12:42:37.977Z,1.33
2022-11-10T12:45:32.573Z,1.50
2022-11-10T12:48:19.070Z,1.08
2022-11-10T12:51:12.828Z,1.58
2022-11-10T12:53:58.500Z,1.35
2022-11-10T12:57:01.846Z,1.52
2022-11-10T12:59:59.631Z,1.80
2022-11-10T13:02:46.851Z,1.48
2022-11-10T13:05:45.561Z,1.67
2022-11-10T13:08:44.336Z,1.90
2022-11-10T13:11:34.900Z,1.70
2022-11-10T13:14:28.314Z,1.80
2022-11-10T13:17:26.173Z,1.45
2022-11-10T13:20:39.898Z,1.60
2022-11-10T13:23:44.646Z,1.42
2022-11-10T13:26:39.147Z,1.30
2022-11-10T13:29:32.360Z,1.40
2022-11-10T13:32:26.014Z,1.65
2022-11-10T13:35:29.808Z,1.40
2022-11-10T13:38:45.429Z,1.35
2022-11-10T13:41:34.573Z,1.80
2022-11-10T13:44:36.517Z,1.63
2022-11-10T13:47:35.106Z,2.05
2022-11-10T13:50:37.944Z,1.80
2022-11-10T13:53:55.607Z,2.00
2022-11-10T13:57:00.798Z,1.77
2022-11-10T14:00:15.859Z,1.70
2022-11-10T14:03:06.523Z,1.38
2022-11-10T14:06:03.444Z,1.73
2022-11-10T14:08:57.125Z,2.15
2022-11-10T14:11:50.113Z,1.85
2022-11-10T14:14:43.921Z,2.25
2022-11-10T14:17:34.652Z,1.95
2022-11-10T14:20:42.845Z,2.08
2022-11-10T14:23:43.841Z,3.17
2022-11-10T14:26:34.852Z,1.95
2022-11-10T14:29:40.743Z,2.47
2022-11-10T14:32:27.132Z,2.40
2022-11-10T14:35:24.978Z,2.55
2022-11-10T14:38:21.588Z,3.17
2022-11-10T14:41:16.482Z,3.10
2022-11-10T14:44:06.813Z,3.40
2022-11-10T14:46:52.770Z,2.80
2022-11-10T14:49:38.039Z,2.53
2022-11-10T14:55:15.065Z,3.08
2022-11-10T14:58:22.663Z,3.70
2022-11-10T15:01:24.806Z,3.70
2022-11-10T15:04:12.217Z,4.78
2022-11-10T15:06:59.873Z,3.88
2022-11-10T15:10:05.940Z,3.67
2022-11-10T15:13:02.939Z,3.83
2022-11-10T15:15:48.795Z,4.13
2022-11-10T15:18:34.044Z,4.68
2022-11-10T15:21:21.908Z,4.47
2022-11-10T15:24:07.656Z,4.95
2022-11-10T15:26:53.035Z,6.30
2022-11-10T15:29:38.396Z,5.05
2022-11-10T15:32:49.101Z,5.10
2022-11-10T15:35:34.885Z,5.57
2022-11-10T15:38:25.043Z,5.38
2022-11-10T15:41:26.824Z,5.40
2022-11-10T15:44:18.205Z,5.43
2022-11-10T15:47:03.600Z,6.25
2022-11-10T15:49:48.987Z,7.03
2022-11-10T15:52:35.056Z,7.75
2022-11-10T15:58:18.287Z,10.18
2022-11-10T16:01:03.929Z,12.02
2022-11-10T16:06:35.115Z,11.18
2022-11-10T16:09:20.777Z,12.95
2022-11-10T16:14:53.122Z,11.70
2022-11-10T16:17:38.732Z,13.15
2022-11-10T16:20:24.350Z,12.75
2022-11-10T16:23:09.920Z,12.45
2022-11-10T16:25:56.949Z,12.43
2022-11-10T16:28:44.308Z,12.45
2022-11-10T16:31:31.902Z,11.77
2022-11-10T16:34:17.600Z,12.13
2022-11-10T16:39:48.509Z,11.82
2022-11-10T16:42:33.894Z,11.40
2022-11-10T16:45:30.231Z,12.80
2022-11-10T16:48:18.234Z,11.95
2022-11-10T16:51:04.105Z,12.10
2022-11-10T16:53:51.283Z,11.43
2022-11-10T16:56:36.911Z,12.45
2022-11-10T16:59:22.421Z,11.70
2022-11-10T17:02:31.599Z,15.30
2022-11-10T17:05:17.520Z,11.98
2022-11-10T17:08:03.940Z,12.77
2022-11-10T17:10:50.835Z,12.32
2022-11-10T17:13:36.199Z,14.05
2022-11-10T17:16:37.858Z,14.65
2022-11-10T17:19:26.487Z,15.30
2022-11-10T17:22:17.233Z,14.25
2022-11-10T17:25:03.579Z,12.00
2022-11-10T17:27:49.202Z,11.15
2022-11-10T17:30:34.518Z,11.70
2022-11-10T17:36:27.676Z,11.95
2022-11-10T17:39:15.504Z,10.35
2022-11-10T17:42:01.716Z,10.95
2022-11-10T17:44:47.244Z,10.40
2022-11-10T17:47:32.493Z,9.80
2022-11-10T17:50:20.220Z,9.65
2022-11-10T17:53:26.768Z,8.82
2022-11-10T17:56:12.663Z,10.00
2022-11-10T18:01:43.553Z,9.30
2022-11-10T18:07:14.749Z,9.35
2022-11-10T18:10:00.100Z,9.95
2022-11-10T18:12:45.390Z,10.30
2022-11-10T18:15:30.726Z,11.80
2022-11-10T18:18:17.649Z,10.07
2022-11-10T18:21:03.745Z,11.60
2022-11-10T18:23:49.296Z,10.55
2022-11-10T18:26:34.778Z,10.32
2022-11-10T18:32:06.189Z,10.57
2022-11-10T18:34:51.435Z,9.52
2022-11-10T18:37:39.055Z,9.82
2022-11-10T18:40:25.527Z,10.05
2022-11-10T18:45:56.054Z,10.25
2022-11-10T18:48:42.623Z,15.23
2022-11-10T18:51:28.643Z,11.80
2022-11-10T18:56:59.517Z,11.02
2022-11-10T18:59:45.384Z,16.85
2022-11-10T19:02:31.125Z,18.40
2022-11-10T19:05:16.407Z,13.00
2022-11-10T19:08:01.462Z,14.88
2022-11-10T19:10:46.971Z,11.90
2022-11-10T19:13:32.326Z,14.40
2022-11-10T19:16:19.085Z,13.27
2022-11-10T19:19:04.534Z,11.45
2022-11-10T19:21:50.062Z,10.60
2022-11-10T19:24:53.665Z,11.93
2022-11-10T19:27:41.980Z,12.30
2022-11-10T19:30:27.395Z,13.52
2022-11-10T19:33:12.645Z,11.95
2022-11-10T19:39:04.278Z,10.45
2022-11-10T19:41:49.322Z,10.38
2022-11-10T19:44:34.853Z,10.50
2022-11-10T19:47:20.843Z,10.52
2022-11-10T19:50:06.941Z,10.90
2022-11-10T19:55:37.425Z,10.15
2022-11-10T19:58:23.137Z,10.38
2022-11-10T20:01:10.250Z,11.85
2022-11-10T20:03:55.805Z,10.50
2022-11-10T20:06:41.032Z,10.70
2022-11-10T20:09:26.368Z,9.98
2022-11-10T20:12:12.637Z,11.10
2022-11-10T20:14:58.048Z,11.25
2022-11-10T20:17:43.373Z,11.80
2022-11-10T20:20:28.741Z,10.02
2022-11-10T20:23:15.870Z,9.57
2022-11-10T20:26:12.549Z,9.05
2022-11-10T20:28:58.112Z,9.27
2022-11-10T20:31:43.469Z,9.55
2022-11-10T20:34:29.259Z,8.00
2022-11-10T20:40:00.034Z,7.18
2022-11-10T20:42:45.884Z,6.45
2022-11-10T20:45:31.092Z,7.25
2022-11-10T20:48:16.513Z,6.50
2022-11-10T20:51:01.858Z,5.85
2022-11-10T20:53:48.059Z,6.03
2022-11-10T20:56:33.393Z,6.70
2022-11-10T20:59:18.840Z,6.68
2022-11-10T21:04:49.842Z,7.30
2022-11-10T21:07:35.322Z,8.07
2022-11-10T21:10:20.758Z,8.50
2022-11-10T21:13:06.046Z,6.97
2022-11-10T21:15:57.056Z,9.30
2022-11-10T21:18:42.083Z,10.43
2022-11-10T21:21:34.105Z,9.65
2022-11-10T21:24:19.855Z,9.63
2022-11-10T21:27:05.158Z,10.05
2022-11-10T21:29:50.651Z,7.60
2022-11-10T21:32:36.028Z,7.13
2022-11-10T21:35:21.471Z,6.57
2022-11-10T21:38:07.742Z,6.72
2022-11-10T21:40:53.107Z,6.13
2022-11-10T21:46:24.505Z,6.95
2022-11-10T21:51:55.461Z,6.25
2022-11-10T21:54:40.648Z,5.93
2022-11-10T21:57:26.197Z,5.53
2022-11-10T22:00:13.119Z,7.95
2022-11-10T22:03:00.111Z,7.47
2022-11-10T22:05:45.660Z,6.95
2022-11-10T22:08:31.109Z,7.07
2022-11-10T22:11:38.843Z,7.65
2022-11-10T22:14:42.387Z,10.02
2022-11-10T22:17:46.695Z,11.05
2022-11-10T22:20:32.467Z,9.98
2022-11-10T22:23:17.904Z,11.38
2022-11-10T22:26:03.397Z,9.63
2022-11-10T22:28:48.925Z,10.50
2022-11-10T22:31:34.303Z,11.70
2022-11-10T22:34:20.721Z,9.25
2022-11-10T22:37:06.463Z,9.75
2022-11-10T22:40:09.957Z,9.57
2022-11-10T22:43:13.982Z,8.93
2022-11-10T22:45:59.506Z,9.00
2022-11-10T22:48:45.144Z,10.80
2022-11-10T22:51:32.063Z,7.78
2022-11-10T22:54:23.250Z,8.88
2022-11-10T22:57:08.653Z,8.63
2022-11-10T23:02:39.432Z,10.18
2022-11-10T23:05:24.785Z,11.57
2022-11-10T23:08:10.192Z,12.88
2022-11-10T23:11:06.691Z,12.98
2022-11-10T23:13:52.320Z,12.23
2022-11-10T23:16:37.564Z,12.35
2022-11-10T23:19:22.784Z,10.60
2022-11-10T23:22:08.174Z,10.23
2022-11-10T23:24:56.984Z,10.27
2022-11-10T23:27:42.657Z,9.27
2022-11-10T23:30:27.939Z,10.98
2022-11-10T23:33:13.379Z,11.63
2022-11-10T23:35:58.656Z,13.25
2022-11-10T23:38:44.462Z,13.75
2022-11-10T23:41:29.485Z,13.50
2022-11-10T23:44:14.976Z,12.93
2022-11-10T23:47:00.607Z,13.43
2022-11-10T23:49:45.723Z,11.70
2022-11-10T23:52:31.100Z,12.05
2022-11-10T23:55:16.738Z,12.68
2022-11-10T23:58:03.062Z,11.77
